createdAt,value
2022-12-03T00:02:21.047Z,4.53
2022-12-03T00:07:41.528Z,3.65
2022-12-03T00:13:02.235Z,4.25
2022-12-03T00:18:22.413Z,4.80
2022-12-03T00:23:43.484Z,4.60
2022-12-03T00:29:03.976Z,4.65
2022-12-03T00:34:24.346Z,4.70
2022-12-03T00:39:44.772Z,5.45
2022-12-03T00:45:06.039Z,4.80
2022-12-03T00:50:28.017Z,4.53
2022-12-03T00:55:50.607Z,4.68
2022-12-03T01:01:11.597Z,4.63
2022-12-03T01:06:32.126Z,4.80
2022-12-03T01:11:52.789Z,4.00
2022-12-03T01:17:13.706Z,4.47
2022-12-03T01:22:34.270Z,4.20
2022-12-03T01:27:54.645Z,4.55
2022-12-03T01:33:15.313Z,3.80
2022-12-03T01:38:36.088Z,3.30
2022-12-03T01:43:57.864Z,3.17
2022-12-03T01:49:22.031Z,3.28
2022-12-03T01:54:47.910Z,3.97
2022-12-03T02:00:28.256Z,2.95
2022-12-03T02:05:51.246Z,3.30
2022-12-03T02:11:21.451Z,3.65
2022-12-03T02:16:43.526Z,3.67
2022-12-03T02:22:22.606Z,2.55
2022-12-03T02:27:43.448Z,3.20
2022-12-03T02:33:04.171Z,3.03
2022-12-03T02:38:29.626Z,2.88
2022-12-03T02:43:51.238Z,3.30
2022-12-03T02:49:11.980Z,2.85
2022-12-03T02:54:32.657Z,3.58
2022-12-03T03:00:10.111Z,2.75
2022-12-03T03:05:31.346Z,3.60
2022-12-03T03:10:52.093Z,3.08
2022-12-03T03:16:12.884Z,3.50
2022-12-03T03:21:33.661Z,3.58
2022-12-03T03:26:54.723Z,3.55
2022-12-03T03:32:15.301Z,3.88
2022-12-03T03:37:36.500Z,3.83
2022-12-03T03:42:57.417Z,3.58
2022-12-03T03:48:18.645Z,3.63
2022-12-03T03:53:42.825Z,4.25
2022-12-03T03:59:03.906Z,3.65
2022-12-03T04:04:29.183Z,3.10
2022-12-03T04:09:49.876Z,3.42
2022-12-03T04:15:10.448Z,3.63
2022-12-03T04:20:30.901Z,4.07
2022-12-03T04:26:11.158Z,3.50
2022-12-03T04:31:50.107Z,3.13
2022-12-03T04:37:10.744Z,4.70
2022-12-03T04:42:31.542Z,3.72
2022-12-03T04:47:52.105Z,4.22
2022-12-03T04:53:12.778Z,4.38
2022-12-03T04:58:33.434Z,3.78
2022-12-03T05:03:53.950Z,4.85
2022-12-03T05:09:14.591Z,4.05
2022-12-03T05:14:34.846Z,4.00
2022-12-03T05:20:14.096Z,4.80
2022-12-03T05:25:34.659Z,4.60
2022-12-03T05:30:55.225Z,4.30
2022-12-03T05:36:16.037Z,3.75
2022-12-03T05:41:55.340Z,4.15
2022-12-03T05:47:15.769Z,5.32
2022-12-03T05:52:36.198Z,4.15
2022-12-03T05:57:56.714Z,3.90
2022-12-03T06:03:17.468Z,3.88
2022-12-03T06:08:38.162Z,4.28
2022-12-03T06:13:58.529Z,4.15
2022-12-03T06:19:18.949Z,4.32
2022-12-03T06:24:39.468Z,4.15
2022-12-03T06:30:00.031Z,4.78
2022-12-03T06:35:20.942Z,5.32
2022-12-03T06:40:42.707Z,4.47
2022-12-03T06:46:03.984Z,4.85
2022-12-03T06:51:24.447Z,4.38
2022-12-03T06:56:45.794Z,5.75
2022-12-03T07:02:11.102Z,4.47
2022-12-03T07:07:31.890Z,3.88
2022-12-03T07:12:52.235Z,5.00
2022-12-03T07:18:13.009Z,4.03
2022-12-03T07:23:33.670Z,5.00
2022-12-03T07:28:54.314Z,4.68
2022-12-03T07:34:14.713Z,4.60
2022-12-03T07:39:35.272Z,6.20
2022-12-03T07:44:56.041Z,6.70
2022-12-03T07:50:17.774Z,6.28
2022-12-03T07:55:38.032Z,6.28
2022-12-03T08:00:58.780Z,6.38
2022-12-03T08:06:19.335Z,5.63
2022-12-03T08:11:40.078Z,5.50
2022-12-03T08:17:00.989Z,5.22
2022-12-03T08:22:22.241Z,5.15
2022-12-03T08:27:42.664Z,5.82
2022-12-03T08:33:17.479Z,5.97
2022-12-03T08:38:38.519Z,4.88
2022-12-03T08:44:01.183Z,5.35
2022-12-03T08:49:22.244Z,6.18
2022-12-03T08:54:43.723Z,5.55
2022-12-03T09:00:20.330Z,5.30
2022-12-03T09:05:40.799Z,5.47
2022-12-03T09:11:01.472Z,5.82
2022-12-03T09:16:22.227Z,6.90
2022-12-03T09:21:43.069Z,5.22
2022-12-03T09:27:04.001Z,5.45
2022-12-03T09:32:24.587Z,5.63
2022-12-03T09:37:45.311Z,5.28
2022-12-03T09:43:05.966Z,5.75
2022-12-03T09:48:26.989Z,4.28
2022-12-03T09:53:48.011Z,6.05
2022-12-03T09:59:16.031Z,5.85
2022-12-03T10:04:36.696Z,5.70
2022-12-03T10:09:57.335Z,4.90
2022-12-03T10:15:22.901Z,5.53
2022-12-03T10:20:44.302Z,5.80
2022-12-03T10:26:04.923Z,5.65
2022-12-03T10:31:36.353Z,5.07
2022-12-03T10:37:09.999Z,4.70
2022-12-03T10:42:36.711Z,4.97
2022-12-03T10:48:11.937Z,4.97
2022-12-03T10:53:35.655Z,5.20
2022-12-03T10:58:56.605Z,4.03
2022-12-03T11:04:35.255Z,4.75
2022-12-03T11:09:56.013Z,4.78
2022-12-03T11:15:16.678Z,4.43
2022-12-03T11:20:46.303Z,4.82
2022-12-03T11:26:07.371Z,4.32
2022-12-03T11:31:42.154Z,4.03
2022-12-03T11:37:11.860Z,4.95
2022-12-03T11:42:40.327Z,4.00
2022-12-03T11:48:01.080Z,4.53
2022-12-03T11:53:25.608Z,4.03
2022-12-03T11:58:47.481Z,5.07
2022-12-03T12:04:29.204Z,4.93
2022-12-03T12:10:00.958Z,5.05
2022-12-03T12:15:34.352Z,4.60
2022-12-03T12:20:55.209Z,5.30
2022-12-03T12:26:15.701Z,5.15
2022-12-03T12:31:36.441Z,4.97
2022-12-03T12:36:59.772Z,5.00
2022-12-03T12:42:36.072Z,5.82
2022-12-03T12:48:03.214Z,5.15
2022-12-03T12:53:27.373Z,5.88
2022-12-03T12:58:48.398Z,4.85
2022-12-03T13:04:14.052Z,6.07
2022-12-03T13:09:34.493Z,5.05
2022-12-03T13:14:59.292Z,5.85
2022-12-03T13:20:20.499Z,5.80
2022-12-03T13:31:25.308Z,6.55
2022-12-03T13:36:52.035Z,6.20
2022-12-03T13:42:45.076Z,5.05
2022-12-03T13:48:21.289Z,6.15
2022-12-03T13:53:41.467Z,6.18
2022-12-03T13:59:03.985Z,5.82
2022-12-03T14:04:24.348Z,5.28
2022-12-03T14:09:45.028Z,6.68
2022-12-03T14:15:06.838Z,5.63
2022-12-03T14:20:27.203Z,6.60
2022-12-03T14:25:47.966Z,6.40
2022-12-03T14:31:08.360Z,5.80
2022-12-03T14:36:29.035Z,6.82
2022-12-03T14:42:08.809Z,5.78
2022-12-03T14:47:29.496Z,6.18
2022-12-03T14:52:49.887Z,7.22
2022-12-03T14:58:10.748Z,6.35
2022-12-03T15:03:31.362Z,5.53
2022-12-03T15:08:51.981Z,7.15
2022-12-03T15:14:12.707Z,6.15
2022-12-03T15:19:33.467Z,7.13
2022-12-03T15:24:53.794Z,6.90
2022-12-03T15:30:14.877Z,6.10
2022-12-03T15:35:35.513Z,6.07
2022-12-03T15:40:56.567Z,6.53
2022-12-03T15:46:17.353Z,6.45
2022-12-03T15:51:37.840Z,5.60
2022-12-03T15:56:58.563Z,7.07
2022-12-03T16:02:18.944Z,6.53
2022-12-03T16:07:39.963Z,6.75
2022-12-03T16:13:00.647Z,6.45
2022-12-03T16:18:21.330Z,6.78
2022-12-03T16:23:41.917Z,6.47
2022-12-03T16:29:02.504Z,6.40
2022-12-03T16:34:22.974Z,6.63
2022-12-03T16:39:43.441Z,6.43
2022-12-03T16:45:04.486Z,6.15
2022-12-03T16:50:29.851Z,7.28
2022-12-03T16:55:50.799Z,5.55
2022-12-03T17:01:12.411Z,5.70
2022-12-03T17:06:33.138Z,6.55
2022-12-03T17:11:53.963Z,6.22
2022-12-03T17:17:14.505Z,6.47
2022-12-03T17:22:35.135Z,7.05
2022-12-03T17:27:56.370Z,6.85
2022-12-03T17:33:16.954Z,6.03
2022-12-03T17:38:39.460Z,5.85
2022-12-03T17:44:01.853Z,6.22
2022-12-03T17:49:29.895Z,6.20
2022-12-03T18:00:33.642Z,6.43
2022-12-03T18:05:55.213Z,7.03
2022-12-03T18:11:15.764Z,6.88
2022-12-03T18:16:36.444Z,6.60
2022-12-03T18:21:57.330Z,5.57
2022-12-03T18:27:18.062Z,6.20
2022-12-03T18:32:38.366Z,6.07
2022-12-03T18:37:59.690Z,5.88
2022-12-03T18:43:20.813Z,6.75
2022-12-03T18:48:43.223Z,6.75
2022-12-03T18:54:04.165Z,7.30
2022-12-03T18:59:24.340Z,6.78
2022-12-03T19:04:45.018Z,6.38
2022-12-03T19:10:05.883Z,7.20
2022-12-03T19:15:26.462Z,6.70
2022-12-03T19:20:46.932Z,6.93
2022-12-03T19:26:10.007Z,7.25
2022-12-03T19:31:33.298Z,6.53
2022-12-03T19:36:54.168Z,6.93
2022-12-03T19:42:14.606Z,6.72
2022-12-03T19:47:37.149Z,7.60
2022-12-03T19:52:58.018Z,6.38
2022-12-03T19:58:18.477Z,6.28
2022-12-03T20:03:43.179Z,6.93
2022-12-03T20:09:07.609Z,7.95
2022-12-03T20:19:48.947Z,6.05
2022-12-03T20:25:10.139Z,6.30
2022-12-03T20:30:30.620Z,6.70
2022-12-03T20:35:55.486Z,4.70
2022-12-03T20:41:18.646Z,6.50
2022-12-03T20:46:39.451Z,4.18
2022-12-03T20:52:04.343Z,4.95
2022-12-03T20:57:25.156Z,5.40
2022-12-03T21:02:45.788Z,6.22
2022-12-03T21:08:06.529Z,5.95
2022-12-03T21:13:30.979Z,4.90
2022-12-03T21:18:52.698Z,5.20
2022-12-03T21:24:13.793Z,5.97
2022-12-03T21:29:34.247Z,5.93
2022-12-03T21:34:54.886Z,5.38
2022-12-03T21:40:15.639Z,4.57
2022-12-03T21:45:39.917Z,5.22
2022-12-03T21:51:03.604Z,4.32
2022-12-03T21:56:24.732Z,5.53
2022-12-03T22:01:47.374Z,4.43
2022-12-03T22:07:08.102Z,6.28
2022-12-03T22:12:28.575Z,5.38
2022-12-03T22:17:48.976Z,4.82
2022-12-03T22:23:09.521Z,4.70
2022-12-03T22:28:30.032Z,5.10
2022-12-03T22:33:50.689Z,4.68
2022-12-03T22:39:11.329Z,4.28
2022-12-03T22:44:32.238Z,4.75
2022-12-03T22:49:53.099Z,5.03
2022-12-03T22:55:14.414Z,5.60
2022-12-03T23:00:37.965Z,5.13
2022-12-03T23:05:58.654Z,5.07
2022-12-03T23:11:20.030Z,4.43
2022-12-03T23:16:41.012Z,4.28
2022-12-03T23:22:01.618Z,4.00
2022-12-03T23:27:21.883Z,3.95
2022-12-03T23:40:32.783Z,4.03
2022-12-03T23:45:53.507Z,4.15
2022-12-03T23:51:18.441Z,3.95
2022-12-03T23:56:40.855Z,4.28
